Terminal Aerodrome Forecast
Issued by NWS Binghamton, NY

Home | Current Version | Previous Version | Text Only | Print | Product List | Glossary On
Versions: 1 2 3 4 5 6 7 8 9 10 11 12 13 14 15 16 17 18
626
FTUS41 KBGM 262341
TAFSYR
TAF
KSYR 262341Z 2700/2724 10005KT P6SM SKC
     FM271400 15009G16KT P6SM SCT140
     FM271900 16011G21KT P6SM SCT050=

USA.gov is the U.S. government's official web portal to all federal, state and local government web resources and services.